This is the latest recevied weather packets stored in our database for station/object W1REE. If no packets are shown the sender has not sent any weather packets the latest 10 day(s).
| Time | Temp. | Humidity | Pressure | Rain* | Wind** | Luminosity | Snow |
|---|---|---|---|---|---|---|---|
| 1777407733 | 15.56° C | 36% | 1017 hPa | 0 mm | - | 517 W/m² | - |
| 1777407434 | 15.56° C | 37% | 1017.1 hPa | 0 mm | - | 295 W/m² | - |
| 1777407129 | 16.11° C | 37% | 1017 hPa | 0 mm | - | 308 W/m² | - |
| 1777406824 | 15.56° C | 38% | 1017 hPa | 0 mm | - | 1121 W/m² | - |
| 1777406519 | 15.56° C | 38% | 1017.1 hPa | 0 mm | - | 956 W/m² | - |
| 1777406215 | 16.11° C | 35% | 1017.1 hPa | 0 mm | - | 1083 W/m² | - |
| 1777405914 | 15.56° C | 37% | 1017 hPa | 0 mm | - | 763 W/m² | - |
| 1777405611 | 16.11° C | 35% | 1017.1 hPa | 0 mm | - | 983 W/m² | - |
| 1777405309 | 15° C | 41% | 1017 hPa | 0 mm | - | 1166 W/m² | - |
| 1777405008 | 15° C | 37% | 1017.1 hPa | 0 mm | - | 1207 W/m² | - |
| 1777404704 | 14.44° C | 40% | 1017 hPa | 0 mm | - | 1184 W/m² | - |
| 1777404400 | 15° C | 40% | 1017.1 hPa | 0 mm | - | 1093 W/m² | - |
| 1777404097 | 13.89° C | 41% | 1017.2 hPa | 0 mm | - | 1150 W/m² | - |
| 1777403792 | 14.44° C | 40% | 1017.2 hPa | 0 mm | - | 488 W/m² | - |
| 1777403491 | 15° C | 39% | 1017.1 hPa | 0 mm | - | 1248 W/m² | - |
| 1777403185 | 14.44° C | 41% | 1017.5 hPa | 0 mm | - | 1130 W/m² | - |
| 1777402882 | 14.44° C | 43% | 1017.1 hPa | 0 mm | - | 1194 W/m² | - |
| 1777402578 | 13.33° C | 43% | 1017.1 hPa | 0 mm | - | 1163 W/m² | - |
| 1777402277 | 14.44° C | 41% | 1017.4 hPa | 0 mm | - | 1197 W/m² | - |
| 1777401976 | 13.33° C | 42% | 1017.6 hPa | 0 mm | - | 1027 W/m² | - |
| 1777401675 | 12.78° C | 48% | 1017.6 hPa | 0 mm | - | 1193 W/m² | - |
| 1777401373 | 12.22° C | 46% | 1017.7 hPa | 0 mm | - | 1254 W/m² | - |
| 1777401068 | 12.22° C | 46% | 1018 hPa | 0 mm | - | 319 W/m² | - |
| 1777400763 | 13.33° C | 44% | 1018 hPa | 0 mm | - | 994 W/m² | - |
| 1777400461 | 15° C | 39% | 1017.8 hPa | 0 mm | - | 439 W/m² | - |
* Rain latest hour (hover to see other rain measurements)
** Current wind speed in m/s (hover to see current wind gust speed)